Time;durP1;ratioP1;P1;durP2;ratioP2;P2;SDS_P1;SDS_P2;PMS_P1;PMS_P2;Temp;Humidity;BMP_temperature;BMP_pressure;BME280_temperature;BME280_humidity;BME280_pressure;Samples;Min_cycle;Max_cycle;Signal;HPM_P1;HPM_P2
2023/04/22 00:00:45;;;;;;;17.65;8.88;;;;;;;;;;5134899;27;20019;-73
2023/04/22 00:03:32;;;;;;;14.35;8.45;;;;;;;;;;5121767;27;20435;-72
2023/04/22 00:06:18;;;;;;;15.52;8.38;;;;;;;;;;5150632;27;20011;-71
2023/04/22 00:09:03;;;;;;;14.40;8.90;;;;;;;;;;5146485;27;20183;-72
2023/04/22 00:11:49;;;;;;;16.08;9.23;;;;;;;;;;5135784;27;20031;-73
2023/04/22 00:14:35;;;;;;;17.70;8.80;;;;;;;;;;5134997;27;20027;-72
2023/04/22 00:17:20;;;;;;;15.73;8.70;;;;;;;;;;5136640;27;20019;-72
2023/04/22 00:20:06;;;;;;;15.50;8.13;;;;;;;;;;5135438;27;20019;-72
2023/04/22 00:22:52;;;;;;;12.07;8.45;;;;;;;;;;5120743;27;20037;-72
2023/04/22 00:25:38;;;;;;;15.52;8.40;;;;;;;;;;5135109;27;20015;-73
2023/04/22 00:28:24;;;;;;;12.82;8.38;;;;;;;;;;5134664;28;20016;-72
2023/04/22 00:31:09;;;;;;;15.82;8.02;;;;;;;;;;5141557;27;20015;-73
2023/04/22 00:33:55;;;;;;;15.20;8.60;;;;;;;;;;5141622;27;20007;-72
2023/04/22 00:36:40;;;;;;;14.38;8.82;;;;;;;;;;5126228;27;20084;-73
2023/04/22 00:39:26;;;;;;;14.15;8.75;;;;;;;;;;5142021;27;20015;-73
2023/04/22 00:42:12;;;;;;;15.63;8.65;;;;;;;;;;5141088;27;20026;-72
2023/04/22 00:44:58;;;;;;;14.43;8.30;;;;;;;;;;5127639;27;20019;-72
2023/04/22 00:47:47;;;;;;;15.65;7.90;;;;;;;;;;5140887;27;20358;-72
2023/04/22 00:50:32;;;;;;;12.88;7.93;;;;;;;;;;5141840;27;20023;-72
2023/04/22 00:53:18;;;;;;;12.93;8.45;;;;;;;;;;5141706;27;20055;-72
2023/04/22 00:56:04;;;;;;;15.88;7.90;;;;;;;;;;5142023;27;20037;-71
2023/04/22 00:58:50;;;;;;;18.05;7.85;;;;;;;;;;5142863;27;20023;-72
2023/04/22 01:01:36;;;;;;;15.25;8.23;;;;;;;;;;5140714;27;20029;-71
2023/04/22 01:04:22;;;;;;;13.70;8.45;;;;;;;;;;5126977;27;20026;-73
2023/04/22 01:07:07;;;;;;;15.18;8.43;;;;;;;;;;5126205;27;20118;-73
2023/04/22 01:09:53;;;;;;;15.32;8.48;;;;;;;;;;5127566;27;20027;-72
2023/04/22 01:12:38;;;;;;;16.17;8.00;;;;;;;;;;5140756;27;20106;-72
2023/04/22 01:15:24;;;;;;;14.35;8.45;;;;;;;;;;5141591;27;20027;-72
2023/04/22 01:18:11;;;;;;;16.23;8.07;;;;;;;;;;5141670;27;20061;-72
2023/04/22 01:20:57;;;;;;;13.57;7.82;;;;;;;;;;5127937;27;20181;-71
2023/04/22 01:23:42;;;;;;;14.95;7.90;;;;;;;;;;5140684;27;20035;-72
2023/04/22 01:26:28;;;;;;;17.85;8.10;;;;;;;;;;5141811;27;20023;-73
2023/04/22 01:29:14;;;;;;;14.68;7.75;;;;;;;;;;5141149;27;20041;-72
2023/04/22 01:32:00;;;;;;;16.42;8.60;;;;;;;;;;5141547;27;20019;-73
2023/04/22 01:34:45;;;;;;;14.77;7.97;;;;;;;;;;5126770;27;20043;-73
2023/04/22 01:37:31;;;;;;;19.55;10.27;;;;;;;;;;5141589;27;20363;-73
2023/04/22 01:40:18;;;;;;;18.13;10.05;;;;;;;;;;5141259;27;20110;-73
2023/04/22 01:43:04;;;;;;;16.77;9.85;;;;;;;;;;5121408;27;20340;-71
2023/04/22 01:45:50;;;;;;;18.70;9.90;;;;;;;;;;5123949;27;20450;-72
2023/04/22 01:48:37;;;;;;;55.60;11.38;;;;;;;;;;5137540;27;20023;-72
2023/04/22 01:51:23;;;;;;;18.77;10.20;;;;;;;;;;5138636;27;20061;-72
2023/04/22 01:54:09;;;;;;;13.73;9.40;;;;;;;;;;5137914;27;20366;-73
2023/04/22 01:56:54;;;;;;;15.00;9.05;;;;;;;;;;5138029;27;20098;-73
2023/04/22 01:59:40;;;;;;;15.77;10.00;;;;;;;;;;5136946;27;20023;-73
2023/04/22 02:02:26;;;;;;;17.02;9.82;;;;;;;;;;5138811;27;20019;-73
2023/04/22 02:05:11;;;;;;;15.73;9.95;;;;;;;;;;5136876;27;20408;-73
2023/04/22 02:07:57;;;;;;;16.73;9.43;;;;;;;;;;5137201;27;20481;-73
2023/04/22 02:10:42;;;;;;;16.67;8.88;;;;;;;;;;5136978;27;20023;-72
2023/04/22 02:13:38;;;;;;;22.13;9.77;;;;;;;;;;5136774;27;20098;-72
2023/04/22 02:16:23;;;;;;;17.02;8.25;;;;;;;;;;5137955;27;20019;-73
2023/04/22 02:19:09;;;;;;;15.88;8.52;;;;;;;;;;5123443;27;20027;-73
2023/04/22 02:21:54;;;;;;;17.55;8.13;;;;;;;;;;5137123;27;20015;-72
2023/04/22 02:24:41;;;;;;;16.13;8.18;;;;;;;;;;5136145;27;20023;-72
2023/04/22 02:27:27;;;;;;;13.15;7.93;;;;;;;;;;5136402;27;20052;-72
2023/04/22 02:30:13;;;;;;;18.98;7.88;;;;;;;;;;5137208;27;20401;-71
2023/04/22 02:32:58;;;;;;;18.02;7.80;;;;;;;;;;5138088;27;20048;-72
2023/04/22 02:35:44;;;;;;;18.23;7.45;;;;;;;;;;5137122;27;20023;-71
2023/04/22 02:38:30;;;;;;;13.52;7.38;;;;;;;;;;5136249;27;20068;-73
2023/04/22 02:41:15;;;;;;;12.48;6.45;;;;;;;;;;5136658;27;20015;-72
2023/04/22 02:44:01;;;;;;;15.45;6.60;;;;;;;;;;5136858;27;20427;-72
2023/04/22 02:46:47;;;;;;;10.65;6.63;;;;;;;;;;5136245;27;20019;-72
2023/04/22 02:49:32;;;;;;;10.07;6.07;;;;;;;;;;5136618;27;20023;-72
2023/04/22 02:52:18;;;;;;;10.77;6.88;;;;;;;;;;5136779;27;20019;-72
2023/04/22 02:55:03;;;;;;;11.50;6.10;;;;;;;;;;5121819;27;20038;-72
2023/04/22 02:57:49;;;;;;;9.93;6.22;;;;;;;;;;5122048;27;20015;-72
2023/04/22 03:00:35;;;;;;;10.98;6.18;;;;;;;;;;5136315;27;20034;-73
2023/04/22 03:03:20;;;;;;;11.68;6.50;;;;;;;;;;5127009;27;20324;-72
2023/04/22 03:06:06;;;;;;;13.10;7.05;;;;;;;;;;5143638;27;20462;-72
2023/04/22 03:08:52;;;;;;;18.80;7.75;;;;;;;;;;5135631;27;20130;-73
2023/04/22 03:11:37;;;;;;;18.45;8.07;;;;;;;;;;5136881;27;20015;-73
2023/04/22 03:14:23;;;;;;;22.98;8.80;;;;;;;;;;5135722;27;20034;-72
2023/04/22 03:17:08;;;;;;;14.07;8.45;;;;;;;;;;5135525;27;20015;-72
2023/04/22 03:19:54;;;;;;;16.52;8.82;;;;;;;;;;5137030;27;20019;-72
2023/04/22 03:22:40;;;;;;;16.13;8.90;;;;;;;;;;5135379;27;20463;-72
2023/04/22 03:25:25;;;;;;;17.67;8.88;;;;;;;;;;5136027;27;20038;-71
2023/04/22 03:28:11;;;;;;;15.05;8.43;;;;;;;;;;5121228;27;20370;-72
2023/04/22 03:30:57;;;;;;;17.20;8.80;;;;;;;;;;5122573;27;20015;-72
2023/04/22 03:33:42;;;;;;;14.40;9.10;;;;;;;;;;5136095;27;20029;-72
2023/04/22 03:36:28;;;;;;;14.15;8.60;;;;;;;;;;5121693;27;20011;-73
2023/04/22 03:39:13;;;;;;;13.15;7.82;;;;;;;;;;5135659;27;20027;-73
2023/04/22 03:42:00;;;;;;;20.10;8.23;;;;;;;;;;5120399;27;20023;-73
2023/04/22 03:44:45;;;;;;;16.05;9.00;;;;;;;;;;5136611;27;20427;-73
2023/04/22 03:47:31;;;;;;;14.45;9.00;;;;;;;;;;5121617;27;20019;-72
2023/04/22 03:50:17;;;;;;;20.20;11.27;;;;;;;;;;5135865;27;20016;-73
2023/04/22 03:53:02;;;;;;;17.67;10.07;;;;;;;;;;5136356;27;20023;-73
2023/04/22 03:55:48;;;;;;;19.60;11.80;;;;;;;;;;5135409;27;20416;-72
2023/04/22 03:58:33;;;;;;;22.58;13.10;;;;;;;;;;5121032;27;20023;-72
2023/04/22 04:01:19;;;;;;;19.75;11.73;;;;;;;;;;5135279;27;20422;-72
2023/04/22 04:04:05;;;;;;;17.80;11.70;;;;;;;;;;5134716;27;20060;-72
2023/04/22 04:06:50;;;;;;;27.25;13.00;;;;;;;;;;5121725;27;20497;-72
2023/04/22 04:09:36;;;;;;;21.67;12.50;;;;;;;;;;5134908;27;20411;-71
2023/04/22 04:12:21;;;;;;;19.85;12.98;;;;;;;;;;5137061;27;20068;-73
2023/04/22 04:15:07;;;;;;;27.35;12.05;;;;;;;;;;5136118;27;20019;-72
2023/04/22 04:17:54;;;;;;;19.48;12.07;;;;;;;;;;5137013;27;20098;-71
2023/04/22 04:20:40;;;;;;;26.48;12.05;;;;;;;;;;5134737;27;20035;-73
2023/04/22 04:23:26;;;;;;;18.30;11.90;;;;;;;;;;5152133;27;20019;-72
2023/04/22 04:26:11;;;;;;;23.75;12.05;;;;;;;;;;5137463;27;20397;-73
2023/04/22 04:28:57;;;;;;;22.33;11.45;;;;;;;;;;5120285;28;20023;-73
2023/04/22 04:31:42;;;;;;;22.80;12.63;;;;;;;;;;5134123;28;20019;-72
2023/04/22 04:34:28;;;;;;;23.05;11.85;;;;;;;;;;5134125;28;20015;-72
2023/04/22 04:37:15;;;;;;;23.17;12.18;;;;;;;;;;5135280;28;20085;-72
2023/04/22 04:40:01;;;;;;;25.20;12.35;;;;;;;;;;5118759;28;20022;-72
2023/04/22 04:42:46;;;;;;;19.33;12.35;;;;;;;;;;5135437;28;20027;-72
2023/04/22 04:45:32;;;;;;;26.35;13.35;;;;;;;;;;5136078;28;20196;-73
2023/04/22 04:48:18;;;;;;;21.70;13.00;;;;;;;;;;5137271;28;20023;-73
2023/04/22 04:51:05;;;;;;;25.65;13.55;;;;;;;;;;5139806;28;20026;-73
2023/04/22 04:53:50;;;;;;;33.75;15.68;;;;;;;;;;5137196;28;20019;-73
2023/04/22 04:56:36;;;;;;;22.17;14.77;;;;;;;;;;5139149;28;20446;-73
2023/04/22 04:59:21;;;;;;;24.02;14.60;;;;;;;;;;5136057;28;20027;-73
2023/04/22 05:02:07;;;;;;;23.30;13.95;;;;;;;;;;5135731;28;20150;-72
2023/04/22 05:04:53;;;;;;;25.17;13.73;;;;;;;;;;5136512;28;20103;-73
2023/04/22 05:07:38;;;;;;;23.25;13.18;;;;;;;;;;5152069;28;20104;-72
2023/04/22 05:10:24;;;;;;;16.15;11.65;;;;;;;;;;5135736;28;20088;-73
2023/04/22 05:13:10;;;;;;;23.58;11.80;;;;;;;;;;5134583;28;20062;-73
2023/04/22 05:15:56;;;;;;;22.00;12.70;;;;;;;;;;5134971;27;20083;-74
2023/04/22 05:18:41;;;;;;;21.35;12.20;;;;;;;;;;5123607;27;20038;-73
2023/04/22 05:21:27;;;;;;;18.15;11.65;;;;;;;;;;5139240;27;20019;-73
2023/04/22 05:24:12;;;;;;;20.17;11.60;;;;;;;;;;5138609;27;20118;-73
2023/04/22 05:26:58;;;;;;;22.08;11.55;;;;;;;;;;5137731;27;20016;-73
2023/04/22 05:29:44;;;;;;;16.83;11.18;;;;;;;;;;5138252;27;20080;-73
2023/04/22 05:32:29;;;;;;;17.85;11.45;;;;;;;;;;5139192;27;20474;-72
2023/04/22 05:35:15;;;;;;;18.27;11.20;;;;;;;;;;5138775;27;20045;-73
2023/04/22 05:38:01;;;;;;;21.90;11.00;;;;;;;;;;5142292;27;20107;-73
2023/04/22 05:40:47;;;;;;;24.92;12.40;;;;;;;;;;5122550;27;20019;-74
2023/04/22 05:43:32;;;;;;;15.43;11.15;;;;;;;;;;5138396;27;20083;-73
2023/04/22 05:46:18;;;;;;;20.80;11.43;;;;;;;;;;5138224;27;20019;-73
2023/04/22 05:49:04;;;;;;;20.30;12.50;;;;;;;;;;5139442;27;20023;-72
2023/04/22 05:51:49;;;;;;;19.13;11.18;;;;;;;;;;5138410;27;20019;-72
2023/04/22 05:54:36;;;;;;;30.92;14.45;;;;;;;;;;5139161;27;20400;-73
2023/04/22 05:57:21;;;;;;;25.67;12.13;;;;;;;;;;5124622;27;20037;-73
2023/04/22 06:00:08;;;;;;;23.65;10.98;;;;;;;;;;5138315;27;20034;-73
2023/04/22 06:02:54;;;;;;;14.45;8.05;;;;;;;;;;5137935;27;20040;-73
2023/04/22 06:05:39;;;;;;;14.45;8.10;;;;;;;;;;5137642;27;20023;-73
2023/04/22 06:08:26;;;;;;;12.25;7.25;;;;;;;;;;5137075;27;20111;-73
2023/04/22 06:11:11;;;;;;;18.30;7.70;;;;;;;;;;5137701;27;20050;-75
2023/04/22 06:13:57;;;;;;;10.68;7.57;;;;;;;;;;5122769;27;20019;-73
2023/04/22 06:16:42;;;;;;;20.60;9.48;;;;;;;;;;5137483;27;20023;-73
2023/04/22 06:19:28;;;;;;;19.92;9.73;;;;;;;;;;5122227;27;20019;-73
2023/04/22 06:22:13;;;;;;;19.38;10.57;;;;;;;;;;5136596;27;20351;-73
2023/04/22 06:24:59;;;;;;;18.05;9.60;;;;;;;;;;5110078;27;20091;-73
2023/04/22 06:27:44;;;;;;;17.92;8.23;;;;;;;;;;5135593;27;20008;-72
2023/04/22 06:30:30;;;;;;;16.58;9.40;;;;;;;;;;5137516;27;20025;-72
2023/04/22 06:33:16;;;;;;;17.42;8.07;;;;;;;;;;5136450;27;20034;-72
2023/04/22 06:36:03;;;;;;;22.38;9.50;;;;;;;;;;5136587;27;20028;-73
2023/04/22 06:38:49;;;;;;;23.58;8.88;;;;;;;;;;5136851;27;20054;-73
2023/04/22 06:41:34;;;;;;;19.33;8.93;;;;;;;;;;5137783;27;20137;-73
2023/04/22 06:44:21;;;;;;;21.48;9.43;;;;;;;;;;5136395;27;20023;-72
2023/04/22 06:47:06;;;;;;;19.02;8.98;;;;;;;;;;5136883;27;20011;-73
2023/04/22 06:49:52;;;;;;;32.03;9.60;;;;;;;;;;5136273;27;20088;-73
2023/04/22 06:52:37;;;;;;;26.75;8.48;;;;;;;;;;5136157;27;20019;-72
2023/04/22 06:55:23;;;;;;;18.67;7.85;;;;;;;;;;5135831;27;20106;-71
2023/04/22 06:58:08;;;;;;;21.90;8.48;;;;;;;;;;5135970;27;20461;-73
2023/04/22 07:00:54;;;;;;;22.60;7.13;;;;;;;;;;5136368;27;20367;-73
2023/04/22 07:03:40;;;;;;;16.13;7.43;;;;;;;;;;5135846;27;20455;-73
2023/04/22 07:06:26;;;;;;;16.92;6.47;;;;;;;;;;5137451;27;20106;-72
2023/04/22 07:09:12;;;;;;;14.05;6.72;;;;;;;;;;5136058;27;20047;-73
2023/04/22 07:11:58;;;;;;;10.85;5.78;;;;;;;;;;5135482;27;20068;-73
2023/04/22 07:14:44;;;;;;;11.45;6.00;;;;;;;;;;5136115;27;20059;-72
2023/04/22 07:17:29;;;;;;;12.27;5.50;;;;;;;;;;5134128;27;20029;-73
2023/04/22 07:20:15;;;;;;;11.52;5.53;;;;;;;;;;5114888;28;20046;-74
2023/04/22 07:23:00;;;;;;;12.75;6.20;;;;;;;;;;5130945;27;20507;-73
2023/04/22 07:25:46;;;;;;;16.67;6.10;;;;;;;;;;5135910;27;20027;-73
2023/04/22 07:28:31;;;;;;;19.23;5.78;;;;;;;;;;5135649;27;20015;-72
2023/04/22 07:31:17;;;;;;;14.98;5.63;;;;;;;;;;5120737;27;20047;-73
2023/04/22 07:34:03;;;;;;;20.38;5.85;;;;;;;;;;5121442;27;20375;-73
2023/04/22 07:36:50;;;;;;;12.45;5.65;;;;;;;;;;5136223;27;20443;-72
2023/04/22 07:39:36;;;;;;;14.38;5.45;;;;;;;;;;5135480;27;20027;-73
2023/04/22 07:42:21;;;;;;;16.42;5.30;;;;;;;;;;5136253;27;20019;-72
2023/04/22 07:45:07;;;;;;;12.55;5.57;;;;;;;;;;5135956;27;20351;-72
2023/04/22 07:47:53;;;;;;;14.13;5.45;;;;;;;;;;5136232;27;20019;-71
2023/04/22 07:50:38;;;;;;;13.70;5.90;;;;;;;;;;5135505;27;20069;-72
2023/04/22 07:53:24;;;;;;;10.30;4.95;;;;;;;;;;5135026;27;20022;-72
2023/04/22 07:56:09;;;;;;;11.50;5.30;;;;;;;;;;5134479;27;20061;-72
2023/04/22 07:58:55;;;;;;;13.50;5.78;;;;;;;;;;5135374;27;20102;-72
2023/04/22 08:01:41;;;;;;;11.85;5.57;;;;;;;;;;5135093;27;20023;-72
2023/04/22 08:04:26;;;;;;;15.10;5.53;;;;;;;;;;5134100;27;20087;-73
2023/04/22 08:07:13;;;;;;;15.05;5.20;;;;;;;;;;5120730;27;20404;-72
2023/04/22 08:09:58;;;;;;;12.27;5.15;;;;;;;;;;5135187;27;20415;-73
2023/04/22 08:12:44;;;;;;;9.68;4.95;;;;;;;;;;5134695;27;20103;-72
2023/04/22 08:15:30;;;;;;;13.90;5.60;;;;;;;;;;5135174;27;20031;-73
2023/04/22 08:18:16;;;;;;;14.07;5.30;;;;;;;;;;5134815;27;20139;-73
2023/04/22 08:21:01;;;;;;;11.30;4.90;;;;;;;;;;5136597;27;20019;-72
2023/04/22 08:23:47;;;;;;;12.85;5.20;;;;;;;;;;5134872;27;20066;-73
2023/04/22 08:26:32;;;;;;;12.48;4.93;;;;;;;;;;5134246;27;20080;-72
2023/04/22 08:29:18;;;;;;;13.02;5.20;;;;;;;;;;5134793;27;20019;-72
2023/04/22 08:32:04;;;;;;;11.20;5.32;;;;;;;;;;5134176;28;20019;-73
2023/04/22 08:34:49;;;;;;;23.58;5.93;;;;;;;;;;5134544;28;20401;-72
2023/04/22 08:37:35;;;;;;;15.80;5.28;;;;;;;;;;5134968;28;20019;-73
2023/04/22 08:40:20;;;;;;;14.77;5.25;;;;;;;;;;5134642;28;20050;-73
2023/04/22 08:43:06;;;;;;;13.77;5.60;;;;;;;;;;5134169;28;20071;-70
2023/04/22 08:45:52;;;;;;;13.43;6.05;;;;;;;;;;5134635;28;20337;-72
2023/04/22 08:48:37;;;;;;;16.48;5.25;;;;;;;;;;5134591;28;20011;-72
2023/04/22 08:51:24;;;;;;;23.92;6.57;;;;;;;;;;5136188;27;20091;-73
2023/04/22 08:54:10;;;;;;;9.60;5.60;;;;;;;;;;5139461;27;20011;-73
2023/04/22 08:56:55;;;;;;;13.88;5.35;;;;;;;;;;5139397;27;20152;-72
2023/04/22 08:59:41;;;;;;;15.35;5.22;;;;;;;;;;5138942;27;20034;-72
2023/04/22 09:02:27;;;;;;;10.23;4.75;;;;;;;;;;5138807;27;20067;-72
2023/04/22 09:05:13;;;;;;;13.07;4.68;;;;;;;;;;5139649;27;20023;-72
2023/04/22 09:07:59;;;;;;;12.73;5.35;;;;;;;;;;5137634;27;20459;-73
2023/04/22 09:10:45;;;;;;;14.85;4.75;;;;;;;;;;5139408;27;20015;-73
2023/04/22 09:13:31;;;;;;;7.22;4.55;;;;;;;;;;5138572;27;20516;-72
2023/04/22 09:16:16;;;;;;;10.57;4.63;;;;;;;;;;5138808;27;20031;-71
2023/04/22 09:19:02;;;;;;;7.40;4.35;;;;;;;;;;5138015;27;20130;-73
2023/04/22 09:21:48;;;;;;;9.90;4.78;;;;;;;;;;5137801;27;20050;-72
2023/04/22 09:24:34;;;;;;;12.57;4.85;;;;;;;;;;5137712;27;20100;-72
2023/04/22 09:27:22;;;;;;;13.95;4.90;;;;;;;;;;5137545;27;20023;-73
2023/04/22 09:30:09;;;;;;;9.80;4.90;;;;;;;;;;5123231;27;20066;-72
2023/04/22 09:32:55;;;;;;;11.73;4.95;;;;;;;;;;5137970;27;20018;-73
2023/04/22 09:35:41;;;;;;;14.18;4.60;;;;;;;;;;5123301;27;20019;-72
2023/04/22 09:38:30;;;;;;;11.20;4.03;;;;;;;;;;5140131;27;20367;-73
2023/04/22 09:41:16;;;;;;;15.00;5.07;;;;;;;;;;5138312;27;20023;-74
2023/04/22 09:44:02;;;;;;;12.65;4.68;;;;;;;;;;5137228;27;20098;-74
2023/04/22 09:46:48;;;;;;;15.15;4.97;;;;;;;;;;5138040;27;20328;-75
2023/04/22 09:49:39;;;;;;;11.38;4.63;;;;;;;;;;5136136;27;20015;-73
2023/04/22 09:52:28;;;;;;;13.77;4.15;;;;;;;;;;5137566;27;20111;-73
2023/04/22 09:55:13;;;;;;;10.25;3.97;;;;;;;;;;5136437;27;20038;-73
2023/04/22 09:58:04;;;;;;;12.90;4.75;;;;;;;;;;5138583;27;20079;-73
2023/04/22 10:00:50;;;;;;;15.95;4.78;;;;;;;;;;5123686;27;20015;-73
2023/04/22 10:03:36;;;;;;;18.30;4.15;;;;;;;;;;5136959;27;20034;-73
2023/04/22 10:06:22;;;;;;;13.40;4.15;;;;;;;;;;5122685;27;20038;-73
2023/04/22 10:09:08;;;;;;;13.57;4.13;;;;;;;;;;5137847;27;20053;-73
2023/04/22 10:11:55;;;;;;;16.40;4.20;;;;;;;;;;5124049;27;20016;-73
2023/04/22 10:14:41;;;;;;;9.05;4.03;;;;;;;;;;5123627;27;20023;-73
2023/04/22 10:17:28;;;;;;;9.50;3.95;;;;;;;;;;5122728;27;20037;-72
2023/04/22 10:20:16;;;;;;;6.10;3.47;;;;;;;;;;5137200;27;20011;-72
2023/04/22 10:23:03;;;;;;;16.65;4.35;;;;;;;;;;5123409;27;20027;-72
2023/04/22 10:25:55;;;;;;;9.65;3.67;;;;;;;;;;5139683;27;20118;-74
2023/04/22 10:28:42;;;;;;;12.23;3.70;;;;;;;;;;5137224;27;20344;-73
2023/04/22 10:31:27;;;;;;;10.60;3.90;;;;;;;;;;5136678;27;20054;-73
2023/04/22 10:34:14;;;;;;;12.45;3.90;;;;;;;;;;5136266;27;20015;-73
2023/04/22 10:37:06;;;;;;;9.32;3.92;;;;;;;;;;5123893;27;20351;-72
2023/04/22 10:40:07;;;;;;;12.98;4.32;;;;;;;;;;5137238;27;20431;-73
2023/04/22 10:42:57;;;;;;;13.57;4.28;;;;;;;;;;5122376;27;20030;-74
2023/04/22 10:45:43;;;;;;;15.48;4.18;;;;;;;;;;5136329;27;20084;-73
2023/04/22 10:48:47;;;;;;;13.43;4.13;;;;;;;;;;5122325;27;20013;-73
2023/04/22 10:51:40;;;;;;;7.55;3.97;;;;;;;;;;5136255;27;20043;-71
2023/04/22 10:54:30;;;;;;;13.90;4.10;;;;;;;;;;5136122;27;20012;-70
2023/04/22 10:57:21;;;;;;;10.82;4.07;;;;;;;;;;5135171;27;20026;-71
2023/04/22 11:00:27;;;;;;;11.88;4.03;;;;;;;;;;5136339;27;20102;-71
2023/04/22 11:03:13;;;;;;;10.10;4.20;;;;;;;;;;5135865;27;20023;-71
2023/04/22 11:06:21;;;;;;;16.55;4.25;;;;;;;;;;5135850;27;20019;-71
2023/04/22 11:09:11;;;;;;;13.10;4.38;;;;;;;;;;5121392;27;20096;-71
2023/04/22 11:12:16;;;;;;;10.52;4.68;;;;;;;;;;5135319;27;20111;-70
2023/04/22 11:15:05;;;;;;;12.27;4.57;;;;;;;;;;5134845;27;20039;-71
2023/04/22 11:17:52;;;;;;;14.48;4.38;;;;;;;;;;5136491;27;20344;-70
2023/04/22 11:20:38;;;;;;;7.82;4.20;;;;;;;;;;5135918;27;20034;-70
2023/04/22 11:23:27;;;;;;;12.85;4.07;;;;;;;;;;5135194;27;20030;-71
2023/04/22 11:26:12;;;;;;;12.45;4.53;;;;;;;;;;5136261;27;20079;-72
2023/04/22 11:29:00;;;;;;;12.05;4.10;;;;;;;;;;5136126;27;20027;-71
2023/04/22 11:31:47;;;;;;;11.82;4.45;;;;;;;;;;5134859;27;20015;-71
2023/04/22 11:34:33;;;;;;;18.50;4.40;;;;;;;;;;5135509;27;20023;-70
2023/04/22 11:37:18;;;;;;;10.77;4.40;;;;;;;;;;5134830;27;20026;-72
2023/04/22 11:40:04;;;;;;;12.05;4.45;;;;;;;;;;5122504;27;20047;-73
2023/04/22 11:42:50;;;;;;;9.90;4.05;;;;;;;;;;5135237;27;20023;-72
2023/04/22 11:45:36;;;;;;;15.80;4.18;;;;;;;;;;5135335;27;20029;-72
2023/04/22 11:48:22;;;;;;;14.55;4.30;;;;;;;;;;5135974;27;20034;-72
2023/04/22 11:51:10;;;;;;;13.48;4.25;;;;;;;;;;5135048;27;20023;-72
2023/04/22 11:53:57;;;;;;;10.00;4.10;;;;;;;;;;5135296;27;20366;-72
2023/04/22 11:56:42;;;;;;;10.48;3.88;;;;;;;;;;5134674;27;20436;-71
2023/04/22 11:59:28;;;;;;;18.83;4.30;;;;;;;;;;5134260;27;20027;-74
2023/04/22 12:02:16;;;;;;;10.55;3.85;;;;;;;;;;5135011;27;20087;-72
2023/04/22 12:05:02;;;;;;;8.82;4.10;;;;;;;;;;5134599;27;20126;-73
2023/04/22 12:07:49;;;;;;;11.20;3.90;;;;;;;;;;5134551;27;20148;-72
2023/04/22 12:10:39;;;;;;;9.63;4.00;;;;;;;;;;5134689;27;20355;-73
2023/04/22 12:13:29;;;;;;;12.02;3.53;;;;;;;;;;5134118;27;20023;-71
2023/04/22 12:16:18;;;;;;;14.35;4.25;;;;;;;;;;5120238;27;20018;-71
2023/04/22 12:19:04;;;;;;;13.48;4.20;;;;;;;;;;5134024;27;20065;-73
2023/04/22 12:21:49;;;;;;;13.63;4.40;;;;;;;;;;5135216;27;20095;-73
2023/04/22 12:24:35;;;;;;;12.52;4.10;;;;;;;;;;5120096;28;20114;-73
2023/04/22 12:27:20;;;;;;;10.40;3.67;;;;;;;;;;5119851;27;20462;-73
2023/04/22 12:30:07;;;;;;;11.25;4.28;;;;;;;;;;5133724;27;20027;-73
2023/04/22 12:32:52;;;;;;;10.73;4.75;;;;;;;;;;5120211;28;20347;-73
2023/04/22 12:35:38;;;;;;;9.27;4.10;;;;;;;;;;5120399;28;20042;-72
2023/04/22 12:38:23;;;;;;;7.95;3.63;;;;;;;;;;5114525;28;20106;-72
2023/04/22 12:41:09;;;;;;;6.82;3.63;;;;;;;;;;5115104;28;20422;-73
2023/04/22 12:43:55;;;;;;;13.13;3.88;;;;;;;;;;5113485;28;20034;-69
2023/04/22 12:46:40;;;;;;;9.70;3.80;;;;;;;;;;5113659;28;20024;-70
2023/04/22 12:49:26;;;;;;;14.30;4.55;;;;;;;;;;5113410;28;20024;-70
2023/04/22 12:52:11;;;;;;;13.25;3.55;;;;;;;;;;5116293;28;20115;-69
2023/04/22 12:54:57;;;;;;;11.35;3.72;;;;;;;;;;5133466;28;20072;-69
2023/04/22 12:57:44;;;;;;;11.73;3.92;;;;;;;;;;5133668;28;20440;-69
2023/04/22 13:00:29;;;;;;;6.90;3.70;;;;;;;;;;5134118;28;20047;-71
2023/04/22 13:03:15;;;;;;;11.15;3.30;;;;;;;;;;5134081;28;20395;-70
2023/04/22 13:06:01;;;;;;;11.85;5.75;;;;;;;;;;5134073;28;20019;-70
2023/04/22 13:08:46;;;;;;;14.43;4.30;;;;;;;;;;5134184;28;20122;-70
2023/04/22 13:11:32;;;;;;;12.15;3.85;;;;;;;;;;5120113;28;20019;-69
2023/04/22 13:14:18;;;;;;;13.43;3.42;;;;;;;;;;5133519;28;20022;-70
2023/04/22 13:17:03;;;;;;;8.95;3.90;;;;;;;;;;5134476;28;20021;-70
2023/04/22 13:19:50;;;;;;;12.23;4.00;;;;;;;;;;5133643;28;20428;-69
2023/04/22 13:22:36;;;;;;;10.50;3.80;;;;;;;;;;5133745;28;20023;-70
2023/04/22 13:25:21;;;;;;;9.30;3.15;;;;;;;;;;5133666;28;20034;-70
2023/04/22 13:28:07;;;;;;;7.85;2.92;;;;;;;;;;5134082;28;20328;-70
2023/04/22 13:30:53;;;;;;;13.25;3.70;;;;;;;;;;5134065;28;20015;-69
2023/04/22 13:33:39;;;;;;;12.25;3.53;;;;;;;;;;5133257;28;20026;-70
2023/04/22 13:36:25;;;;;;;8.70;3.22;;;;;;;;;;5133774;27;20122;-69
2023/04/22 13:39:11;;;;;;;10.25;4.28;;;;;;;;;;5136754;27;20084;-70
2023/04/22 13:41:57;;;;;;;15.57;5.85;;;;;;;;;;5122189;27;20030;-69
2023/04/22 13:44:42;;;;;;;7.85;3.30;;;;;;;;;;5137160;27;20079;-69
2023/04/22 13:47:28;;;;;;;7.38;3.50;;;;;;;;;;5137634;27;20011;-70
2023/04/22 13:50:13;;;;;;;10.05;4.00;;;;;;;;;;5137242;27;20027;-69
2023/04/22 13:52:59;;;;;;;10.55;3.90;;;;;;;;;;5136944;27;20355;-69
2023/04/22 13:55:45;;;;;;;11.73;3.60;;;;;;;;;;5137982;27;20061;-70
2023/04/22 13:58:31;;;;;;;12.68;3.85;;;;;;;;;;5123465;27;20020;-69
2023/04/22 14:01:17;;;;;;;11.43;4.05;;;;;;;;;;5136642;27;20397;-71
2023/04/22 14:04:02;;;;;;;9.48;3.33;;;;;;;;;;5121740;27;20023;-70
2023/04/22 14:06:48;;;;;;;7.85;2.80;;;;;;;;;;5136466;27;20072;-70
2023/04/22 14:09:34;;;;;;;7.03;3.10;;;;;;;;;;5138031;27;20051;-71
2023/04/22 14:12:19;;;;;;;8.55;3.40;;;;;;;;;;5137807;27;20030;-70
2023/04/22 14:15:05;;;;;;;7.65;3.38;;;;;;;;;;5137477;27;20023;-70
2023/04/22 14:17:51;;;;;;;8.98;3.55;;;;;;;;;;5137111;27;20515;-70
2023/04/22 14:20:37;;;;;;;12.25;4.53;;;;;;;;;;5137548;27;20043;-71
2023/04/22 14:23:23;;;;;;;7.70;3.25;;;;;;;;;;5136439;27;20019;-71
2023/04/22 14:26:10;;;;;;;10.27;3.53;;;;;;;;;;5135926;27;20019;-71
2023/04/22 14:28:56;;;;;;;16.48;3.90;;;;;;;;;;5137632;27;20030;-71
2023/04/22 14:31:41;;;;;;;12.43;3.72;;;;;;;;;;5136787;27;20051;-70
2023/04/22 14:34:27;;;;;;;7.47;3.50;;;;;;;;;;5136375;27;20068;-71
2023/04/22 14:37:13;;;;;;;15.32;3.92;;;;;;;;;;5135910;27;20019;-71
2023/04/22 14:39:59;;;;;;;11.45;3.25;;;;;;;;;;5137092;27;20019;-71
2023/04/22 14:42:45;;;;;;;6.00;3.10;;;;;;;;;;5120924;27;20019;-70
2023/04/22 14:45:31;;;;;;;9.30;3.30;;;;;;;;;;5137143;27;20439;-71
2023/04/22 14:48:16;;;;;;;6.95;3.58;;;;;;;;;;5135739;27;20027;-71
2023/04/22 14:51:02;;;;;;;10.30;3.22;;;;;;;;;;5135703;27;20023;-71
2023/04/22 14:53:47;;;;;;;9.27;3.60;;;;;;;;;;5136882;27;20072;-71
2023/04/22 14:56:33;;;;;;;19.77;4.13;;;;;;;;;;5136428;27;20111;-71
2023/04/22 14:59:19;;;;;;;7.90;3.45;;;;;;;;;;5135669;27;20490;-70
2023/04/22 15:02:05;;;;;;;16.48;8.50;;;;;;;;;;5135425;27;20057;-71
2023/04/22 15:04:51;;;;;;;6.57;3.20;;;;;;;;;;5135732;27;20076;-71
2023/04/22 15:07:36;;;;;;;6.70;3.20;;;;;;;;;;5135970;27;20055;-75
2023/04/22 15:10:23;;;;;;;18.48;3.30;;;;;;;;;;5136070;27;20087;-70
2023/04/22 15:13:08;;;;;;;12.15;3.92;;;;;;;;;;5135745;27;20147;-70
2023/04/22 15:15:54;;;;;;;10.40;3.60;;;;;;;;;;5135675;27;20038;-70
2023/04/22 15:18:39;;;;;;;15.35;3.50;;;;;;;;;;5135286;27;20454;-70
2023/04/22 15:21:25;;;;;;;7.32;3.35;;;;;;;;;;5135695;27;20436;-70
2023/04/22 15:24:11;;;;;;;10.10;3.97;;;;;;;;;;5135252;27;20023;-72
2023/04/22 15:26:57;;;;;;;10.70;3.35;;;;;;;;;;5134963;27;20367;-71
2023/04/22 15:29:45;;;;;;;5.82;3.47;;;;;;;;;;5121898;27;20017;-71
2023/04/22 15:32:30;;;;;;;11.82;3.28;;;;;;;;;;5135544;27;20083;-70
2023/04/22 15:35:16;;;;;;;6.30;3.00;;;;;;;;;;5136504;27;20392;-69
2023/04/22 15:38:03;;;;;;;10.73;3.38;;;;;;;;;;5135955;27;20088;-70
2023/04/22 15:40:48;;;;;;;8.95;3.30;;;;;;;;;;5135680;27;20439;-70
2023/04/22 15:43:34;;;;;;;11.45;3.45;;;;;;;;;;5134978;27;20083;-70
2023/04/22 15:46:20;;;;;;;5.70;3.60;;;;;;;;;;5135995;27;20461;-71
2023/04/22 15:49:06;;;;;;;11.85;3.65;;;;;;;;;;5135559;27;20023;-71
2023/04/22 15:51:52;;;;;;;8.55;3.35;;;;;;;;;;5134714;27;20082;-71
2023/04/22 15:54:37;;;;;;;10.02;3.80;;;;;;;;;;5135448;27;20486;-70
2023/04/22 15:57:23;;;;;;;8.15;3.70;;;;;;;;;;5120850;27;20035;-71
2023/04/22 16:00:10;;;;;;;10.65;5.22;;;;;;;;;;5133481;27;20043;-71
2023/04/22 16:02:56;;;;;;;9.13;4.07;;;;;;;;;;5119693;27;20027;-70
2023/04/22 16:05:42;;;;;;;10.18;4.00;;;;;;;;;;5119553;27;20351;-71
2023/04/22 16:08:28;;;;;;;8.95;4.03;;;;;;;;;;5135463;27;20043;-70
2023/04/22 16:11:14;;;;;;;8.25;3.80;;;;;;;;;;5134443;27;20015;-73
2023/04/22 16:13:59;;;;;;;12.43;4.10;;;;;;;;;;5134659;27;20423;-71
2023/04/22 16:16:45;;;;;;;16.73;4.38;;;;;;;;;;5134159;27;20023;-69
2023/04/22 16:19:31;;;;;;;7.18;3.83;;;;;;;;;;5135698;27;20027;-70
2023/04/22 16:22:17;;;;;;;13.30;4.07;;;;;;;;;;5134670;27;20030;-71